Time;durP1;ratioP1;P1;durP2;ratioP2;P2;SDS_P1;SDS_P2;PMS_P1;PMS_P2;Temp;Humidity;BMP_temperature;BMP_pressure;BME280_temperature;BME280_humidity;BME280_pressure;Samples;Min_cycle;Max_cycle;Signal;HPM_P1;HPM_P2
2024/01/03 00:00:27;;;;;;;11.48;2.63;;;8.00;99.90;;;;;;4989670;28;20366;-73
2024/01/03 00:02:53;;;;;;;;;;;8.00;99.90;;;;;;4999470;28;20046;-73
2024/01/03 00:05:22;;;;;;;13.95;2.53;;;8.00;99.90;;;;;;4997321;28;19928;-73
2024/01/03 00:07:48;;;;;;;4.60;2.30;;;8.00;99.90;;;;;;4992569;28;20079;-73
2024/01/03 00:10:46;;;;;;;5.60;1.15;;;7.90;99.90;;;;;;4972466;28;20082;-73
2024/01/03 00:13:33;;;;;;;6.68;1.83;;;8.00;99.90;;;;;;4963176;28;20566;-73
2024/01/03 00:16:03;;;;;;;3.22;1.35;;;7.90;99.90;;;;;;4963508;28;20057;-73
2024/01/03 00:18:36;;;;;;;5.93;1.65;;;7.90;99.90;;;;;;4971298;28;20555;-73
2024/01/03 00:21:03;;;;;;;8.30;1.23;;;8.00;99.90;;;;;;4966236;28;20559;-73
2024/01/03 00:23:58;;;;;;;10.98;2.05;;;8.00;99.90;;;;;;4983143;28;20061;-73
2024/01/03 00:26:28;;;;;;;4.88;2.10;;;7.90;99.90;;;;;;4992077;28;20050;-73
2024/01/03 00:28:55;;;;;;;3.38;1.40;;;8.00;99.90;;;;;;4974056;28;20078;-73
2024/01/03 00:31:32;;;;;;;9.18;2.50;;;7.90;99.90;;;;;;4994332;28;20371;-73
2024/01/03 00:33:58;;;;;;;2.25;2.00;;;7.90;99.90;;;;;;5016006;28;20038;-73
2024/01/03 00:36:24;;;;;;;8.13;2.53;;;7.80;99.90;;;;;;5001009;28;20053;-72
2024/01/03 00:38:49;;;;;;;4.65;2.40;;;7.90;99.90;;;;;;4984315;28;20238;-73
2024/01/03 00:41:15;;;;;;;12.77;2.92;;;7.90;99.90;;;;;;4982969;28;20377;-73
2024/01/03 00:43:40;;;;;;;7.45;1.67;;;7.90;99.90;;;;;;4983368;28;20509;-73
2024/01/03 00:46:07;;;;;;;16.38;2.72;;;7.80;99.90;;;;;;4967251;28;20401;-73
2024/01/03 00:48:34;;;;;;;3.63;1.55;;;7.90;99.90;;;;;;4981897;28;20060;-73
2024/01/03 00:51:01;;;;;;;16.52;2.05;;;7.90;99.90;;;;;;4981116;28;20450;-73
2024/01/03 00:53:27;;;;;;;17.67;2.65;;;7.90;99.90;;;;;;4966224;28;20046;-73
2024/01/03 00:55:53;;;;;;;7.70;4.00;;;7.80;99.90;;;;;;4976278;28;20038;-73
2024/01/03 00:58:19;;;;;;;2.75;1.23;;;7.90;99.90;;;;;;4981776;28;20684;-73
2024/01/03 01:00:45;;;;;;;7.35;2.85;;;7.80;99.90;;;;;;4967002;28;20230;-73
2024/01/03 01:03:11;;;;;;;9.20;1.83;;;7.90;99.90;;;;;;4981998;28;20058;-73
2024/01/03 01:05:37;;;;;;;4.07;1.95;;;7.90;99.90;;;;;;4981287;28;20065;-73
2024/01/03 01:08:03;;;;;;;6.85;1.50;;;7.80;99.90;;;;;;4981696;28;20046;-73
2024/01/03 01:10:29;;;;;;;12.38;4.10;;;7.90;99.90;;;;;;4983748;28;20066;-73
2024/01/03 01:12:56;;;;;;;6.03;2.45;;;7.80;99.90;;;;;;4982181;28;20046;-73
2024/01/03 01:15:21;;;;;;;4.25;1.45;;;8.00;99.90;;;;;;4966375;28;20042;-73
2024/01/03 01:17:47;;;;;;;2.33;1.85;;;7.90;99.90;;;;;;4982336;28;20477;-72
2024/01/03 01:20:13;;;;;;;22.67;2.35;;;7.90;99.90;;;;;;4980458;28;20050;-73
2024/01/03 01:22:38;;;;;;;8.18;2.50;;;7.90;99.90;;;;;;4981753;28;20627;-72
2024/01/03 01:25:04;;;;;;;11.35;3.63;;;7.90;99.90;;;;;;4981438;28;20069;-72
2024/01/03 01:27:30;;;;;;;5.00;2.13;;;7.90;99.90;;;;;;4993574;28;20108;-73
2024/01/03 01:29:56;;;;;;;8.75;2.25;;;8.00;99.90;;;;;;5001011;28;20049;-73
2024/01/03 01:32:21;;;;;;;3.83;1.77;;;8.00;99.90;;;;;;5001009;28;20049;-72
2024/01/03 01:34:47;;;;;;;15.70;2.42;;;7.90;99.90;;;;;;5000814;28;20412;-73
2024/01/03 01:37:13;;;;;;;7.75;2.78;;;7.90;99.90;;;;;;5001743;28;20145;-72
2024/01/03 01:39:38;;;;;;;6.78;1.55;;;7.90;99.90;;;;;;4987853;28;20061;-72
2024/01/03 01:42:04;;;;;;;8.98;2.25;;;7.90;99.90;;;;;;4982595;28;20388;-72
2024/01/03 01:44:29;;;;;;;15.13;2.78;;;7.90;99.90;;;;;;5002703;28;20042;-72
2024/01/03 01:46:56;;;;;;;6.50;1.70;;;7.90;99.90;;;;;;4999560;28;20038;-72
2024/01/03 01:49:22;;;;;;;1.63;0.93;;;7.90;99.90;;;;;;4996270;28;20050;-72
2024/01/03 01:51:48;;;;;;;3.83;2.55;;;7.80;99.90;;;;;;5002750;28;20049;-72
2024/01/03 01:54:14;;;;;;;8.45;2.45;;;7.80;99.90;;;;;;4976878;28;20387;-72
2024/01/03 01:56:41;;;;;;;5.90;1.13;;;7.90;99.90;;;;;;4986081;28;20068;-72
2024/01/03 01:59:07;;;;;;;1.67;1.13;;;7.90;99.90;;;;;;5001355;28;20100;-72
2024/01/03 02:01:34;;;;;;;4.35;1.58;;;7.90;99.90;;;;;;4988936;28;20125;-72
2024/01/03 02:04:02;;;;;;;5.40;1.33;;;7.90;99.90;;;;;;4984354;28;20092;-72
2024/01/03 02:06:28;;;;;;;7.07;1.10;;;7.80;99.90;;;;;;5059744;23;20054;-72
2024/01/03 02:08:54;;;;;;;7.22;1.58;;;7.80;99.90;;;;;;4992983;28;20049;-72
2024/01/03 02:11:19;;;;;;;4.15;1.35;;;7.80;99.90;;;;;;4986139;28;20164;-72
2024/01/03 02:13:46;;;;;;;2.65;1.88;;;7.90;99.90;;;;;;4994131;28;20479;-72
2024/01/03 02:16:12;;;;;;;5.45;2.03;;;7.80;99.90;;;;;;5001828;28;20081;-72
2024/01/03 02:18:39;;;;;;;4.82;1.90;;;7.80;99.90;;;;;;4985531;28;20587;-72
2024/01/03 02:21:17;;;;;;;3.45;1.77;;;7.80;99.90;;;;;;4983387;28;20049;-72
2024/01/03 02:23:43;;;;;;;10.00;2.25;;;7.80;99.90;;;;;;4999937;28;20076;-72
2024/01/03 02:26:09;;;;;;;8.70;1.05;;;7.80;99.90;;;;;;4980158;28;20069;-73
2024/01/03 02:28:35;;;;;;;6.88;1.70;;;7.80;99.90;;;;;;5001387;28;20081;-73
2024/01/03 02:31:00;;;;;;;4.07;1.55;;;7.90;99.90;;;;;;4995661;28;20456;-72
2024/01/03 02:33:26;;;;;;;3.35;1.13;;;7.80;99.90;;;;;;4983509;28;20043;-72
2024/01/03 02:35:52;;;;;;;9.48;1.10;;;7.80;99.90;;;;;;4986093;28;20524;-73
2024/01/03 02:38:18;;;;;;;4.65;1.70;;;7.80;99.90;;;;;;5001968;28;20048;-72
2024/01/03 02:40:44;;;;;;;7.30;2.47;;;7.90;99.90;;;;;;4990260;28;20069;-72
2024/01/03 02:43:10;;;;;;;2.58;1.38;;;7.90;99.90;;;;;;4983047;28;20050;-73
2024/01/03 02:45:36;;;;;;;11.95;2.05;;;7.90;99.90;;;;;;4983140;28;20093;-72
2024/01/03 02:48:02;;;;;;;5.57;0.85;;;7.80;99.90;;;;;;4982499;28;20460;-72
2024/01/03 02:50:28;;;;;;;5.70;2.88;;;7.90;99.90;;;;;;4969558;28;20054;-72
2024/01/03 02:52:53;;;;;;;1.15;0.88;;;7.90;99.90;;;;;;4998459;28;20510;-72
2024/01/03 02:55:19;;;;;;;0.88;0.82;;;7.90;99.90;;;;;;4985395;28;20591;-72
2024/01/03 02:57:44;;;;;;;5.07;2.50;;;7.90;99.90;;;;;;4982011;28;20052;-72
2024/01/03 03:00:11;;;;;;;3.47;1.13;;;7.90;99.90;;;;;;4991483;28;20038;-72
2024/01/03 03:02:36;;;;;;;5.10;1.20;;;7.80;99.90;;;;;;4989179;28;20109;-72
2024/01/03 03:05:02;;;;;;;5.97;0.93;;;7.80;99.90;;;;;;4982612;28;20372;-72
2024/01/03 03:07:28;;;;;;;1.20;0.77;;;7.80;99.90;;;;;;4982853;28;20572;-73
2024/01/03 03:09:53;;;;;;;3.03;1.75;;;7.80;99.90;;;;;;4983096;28;20117;-72
2024/01/03 03:12:19;;;;;;;4.47;2.80;;;7.80;99.90;;;;;;4995129;28;20524;-72
2024/01/03 03:14:44;;;;;;;3.38;0.98;;;7.80;99.90;;;;;;4983537;28;20121;-72
2024/01/03 03:17:10;;;;;;;3.05;1.23;;;7.80;99.90;;;;;;4982596;28;20108;-72
2024/01/03 03:19:35;;;;;;;9.25;2.55;;;7.80;99.90;;;;;;4983282;28;20050;-73
2024/01/03 03:22:01;;;;;;;2.55;1.15;;;7.90;99.90;;;;;;4999467;28;20129;-72
2024/01/03 03:24:27;;;;;;;7.95;2.03;;;7.80;99.90;;;;;;4992541;28;20060;-72
2024/01/03 03:26:53;;;;;;;4.72;1.10;;;7.90;99.90;;;;;;4983653;28;20047;-72
2024/01/03 03:29:19;;;;;;;4.70;1.13;;;7.90;99.90;;;;;;4998878;28;20069;-72
2024/01/03 03:31:44;;;;;;;3.60;0.80;;;7.90;99.90;;;;;;4984508;28;20755;-72
2024/01/03 03:34:10;;;;;;;6.88;1.45;;;7.90;99.90;;;;;;4987811;28;20041;-72
2024/01/03 03:36:36;;;;;;;2.65;1.23;;;7.90;99.90;;;;;;5003143;28;20570;-72
2024/01/03 03:39:01;;;;;;;7.60;1.70;;;7.90;99.90;;;;;;5005207;28;20064;-72
2024/01/03 03:41:27;;;;;;;5.43;1.70;;;8.00;99.90;;;;;;5002255;28;20049;-72
2024/01/03 03:43:52;;;;;;;6.10;1.50;;;8.00;99.90;;;;;;4995563;28;20077;-72
2024/01/03 03:46:18;;;;;;;5.45;1.35;;;7.90;99.90;;;;;;4986753;28;20042;-72
2024/01/03 03:48:44;;;;;;;2.88;0.80;;;7.90;99.90;;;;;;5003131;28;20058;-72
2024/01/03 03:51:10;;;;;;;2.50;1.00;;;7.90;99.90;;;;;;4988022;28;20658;-72
2024/01/03 03:53:36;;;;;;;1.88;1.10;;;7.90;99.90;;;;;;4996974;28;20125;-72
2024/01/03 03:56:01;;;;;;;4.97;0.98;;;8.00;99.90;;;;;;4985637;28;20085;-72
2024/01/03 03:58:27;;;;;;;2.50;0.85;;;7.90;99.90;;;;;;5005398;28;20057;-72
2024/01/03 04:00:52;;;;;;;2.55;0.90;;;8.00;99.90;;;;;;4990712;28;20554;-72
2024/01/03 04:03:18;;;;;;;4.28;0.88;;;7.90;99.90;;;;;;4987475;28;20038;-71
2024/01/03 04:05:44;;;;;;;1.60;1.25;;;8.00;99.90;;;;;;4983685;28;20086;-72
2024/01/03 04:08:09;;;;;;;3.00;0.68;;;8.00;99.90;;;;;;4985955;28;20046;-72
2024/01/03 04:10:35;;;;;;;1.20;0.52;;;8.00;99.90;;;;;;4986292;28;20489;-72
2024/01/03 04:13:00;;;;;;;4.50;1.00;;;8.00;99.90;;;;;;4996166;28;20050;-72
2024/01/03 04:15:26;;;;;;;3.13;1.15;;;8.00;99.90;;;;;;5004073;28;20080;-72
2024/01/03 04:17:52;;;;;;;1.63;1.08;;;8.00;99.90;;;;;;5004795;28;20049;-73
2024/01/03 04:20:17;;;;;;;8.15;1.85;;;8.00;99.90;;;;;;4987400;28;20035;-72
2024/01/03 04:22:45;;;;;;;4.22;0.80;;;8.00;99.90;;;;;;4994863;28;20081;-72
2024/01/03 04:25:11;;;;;;;3.03;0.95;;;8.00;99.90;;;;;;4991023;28;20050;-72
2024/01/03 04:27:37;;;;;;;2.92;0.75;;;8.00;99.90;;;;;;4984529;28;20110;-72
2024/01/03 04:30:04;;;;;;;0.88;0.60;;;8.00;99.90;;;;;;4993957;28;20117;-72
2024/01/03 04:32:33;;;;;;;5.43;1.10;;;8.00;99.90;;;;;;4985530;28;20046;-72
2024/01/03 04:34:58;;;;;;;0.90;0.82;;;8.10;99.90;;;;;;4985177;28;20113;-71
2024/01/03 04:37:24;;;;;;;4.95;1.55;;;8.00;99.90;;;;;;4967649;28;20126;-73
2024/01/03 04:39:50;;;;;;;7.03;0.98;;;8.00;99.90;;;;;;4984139;28;20746;-72
2024/01/03 04:42:16;;;;;;;11.85;1.15;;;8.10;99.90;;;;;;5002662;28;20049;-72
2024/01/03 04:44:42;;;;;;;3.00;0.95;;;8.00;99.90;;;;;;4995882;28;20044;-72
2024/01/03 04:47:08;;;;;;;6.30;2.20;;;8.10;99.90;;;;;;5003466;28;20045;-72
2024/01/03 04:49:34;;;;;;;10.43;1.50;;;8.10;99.90;;;;;;4993129;28;20045;-72
2024/01/03 04:51:59;;;;;;;3.95;1.67;;;8.10;99.90;;;;;;4986263;28;20049;-72
2024/01/03 04:54:25;;;;;;;4.80;1.77;;;8.10;99.90;;;;;;4989950;28;20129;-72
2024/01/03 04:56:51;;;;;;;9.73;1.75;;;8.10;99.90;;;;;;5004243;28;20129;-72
2024/01/03 04:59:17;;;;;;;1.95;0.80;;;8.10;99.90;;;;;;5002357;28;20136;-72
2024/01/03 05:01:42;;;;;;;3.75;1.15;;;8.00;99.90;;;;;;4984612;28;20092;-72
2024/01/03 05:04:08;;;;;;;2.45;1.65;;;8.00;99.90;;;;;;4988658;28;20121;-72
2024/01/03 05:06:35;;;;;;;2.67;1.92;;;8.10;99.90;;;;;;4999182;28;20399;-72
2024/01/03 05:09:01;;;;;;;7.50;1.33;;;8.10;99.90;;;;;;5003923;28;20041;-72
2024/01/03 05:11:29;;;;;;;2.28;0.90;;;8.10;99.90;;;;;;5001792;28;20048;-72
2024/01/03 05:13:54;;;;;;;8.00;0.85;;;8.10;99.90;;;;;;4984544;28;20042;-73
2024/01/03 05:16:21;;;;;;;3.25;0.98;;;8.00;99.90;;;;;;4998822;28;20046;-73
2024/01/03 05:18:46;;;;;;;3.10;1.13;;;8.10;99.90;;;;;;4983691;28;20121;-72
2024/01/03 05:21:12;;;;;;;2.33;0.43;;;8.10;99.90;;;;;;4985399;28;20133;-72
2024/01/03 05:23:37;;;;;;;2.10;0.47;;;8.00;99.90;;;;;;4998585;28;20056;-72
2024/01/03 05:26:03;;;;;;;9.00;1.50;;;8.00;99.90;;;;;;4987234;28;20030;-72
2024/01/03 05:28:29;;;;;;;5.88;1.60;;;8.10;99.90;;;;;;4972209;28;20551;-72
2024/01/03 05:30:54;;;;;;;3.05;1.15;;;8.10;99.90;;;;;;4984131;28;20038;-72
2024/01/03 05:33:20;;;;;;;4.53;1.25;;;8.10;99.90;;;;;;4984561;28;20046;-73
2024/01/03 05:35:46;;;;;;;8.07;2.35;;;8.10;99.90;;;;;;4995532;28;20070;-72
2024/01/03 05:38:11;;;;;;;8.55;1.35;;;8.10;99.90;;;;;;4983650;28;20710;-72
2024/01/03 05:40:37;;;;;;;12.38;2.20;;;8.20;99.90;;;;;;4977891;28;20082;-72
2024/01/03 05:43:03;;;;;;;7.18;1.35;;;8.20;99.90;;;;;;4993744;28;20061;-72
2024/01/03 05:45:28;;;;;;;15.30;2.80;;;8.10;99.90;;;;;;4992908;28;20050;-72
2024/01/03 05:47:54;;;;;;;6.05;2.28;;;8.10;99.90;;;;;;5001448;28;21778;-72
2024/01/03 05:50:19;;;;;;;10.98;2.20;;;8.20;99.90;;;;;;4991974;28;20041;-72
2024/01/03 05:52:45;;;;;;;10.85;2.78;;;8.20;99.90;;;;;;5003010;28;20096;-72
2024/01/03 05:55:11;;;;;;;3.75;2.10;;;8.20;99.90;;;;;;4999827;28;20579;-72
2024/01/03 05:57:36;;;;;;;10.38;1.85;;;8.20;99.90;;;;;;4982607;28;20074;-72
2024/01/03 06:00:04;;;;;;;4.47;1.95;;;8.20;99.90;;;;;;4982470;28;20121;-72
2024/01/03 06:02:30;;;;;;;5.50;1.77;;;8.30;99.90;;;;;;4983678;28;20126;-72
2024/01/03 06:04:56;;;;;;;7.68;3.70;;;8.20;99.90;;;;;;4983948;28;20125;-72
2024/01/03 06:07:21;;;;;;;17.83;2.33;;;8.10;99.90;;;;;;4996962;28;20116;-72
2024/01/03 06:09:47;;;;;;;20.65;2.58;;;8.20;99.90;;;;;;5003461;28;20607;-72
2024/01/03 06:12:12;;;;;;;3.92;2.90;;;8.20;99.90;;;;;;4999176;28;20049;-72
2024/01/03 06:14:38;;;;;;;7.53;1.65;;;8.20;99.90;;;;;;4985172;28;20081;-72
2024/01/03 06:17:04;;;;;;;4.63;2.55;;;8.30;99.90;;;;;;4983049;28;20718;-72
2024/01/03 06:19:29;;;;;;;12.43;1.65;;;8.20;99.90;;;;;;4983975;28;20086;-72
2024/01/03 06:21:55;;;;;;;3.20;1.83;;;8.20;99.90;;;;;;4993951;28;20419;-72
2024/01/03 06:24:20;;;;;;;17.08;2.08;;;8.20;99.90;;;;;;4984631;28;20042;-72
2024/01/03 06:26:48;;;;;;;8.60;2.13;;;8.20;99.90;;;;;;4983493;28;20051;-72
2024/01/03 06:29:15;;;;;;;9.65;2.28;;;8.20;99.90;;;;;;4982099;28;20050;-72
2024/01/03 06:31:40;;;;;;;6.10;2.00;;;8.20;99.90;;;;;;4983631;28;20494;-72
2024/01/03 06:34:06;;;;;;;6.65;1.52;;;8.20;99.90;;;;;;4983401;28;20057;-73
2024/01/03 06:36:31;;;;;;;9.18;3.10;;;8.20;99.90;;;;;;4983735;28;20035;-72
2024/01/03 06:38:57;;;;;;;6.05;1.60;;;8.20;99.90;;;;;;4992228;28;20133;-73
2024/01/03 06:41:22;;;;;;;9.60;2.15;;;8.20;99.90;;;;;;4984582;28;20049;-73
2024/01/03 06:43:48;;;;;;;7.32;2.45;;;8.30;99.90;;;;;;4992012;28;20542;-73
2024/01/03 06:46:13;;;;;;;8.63;2.28;;;8.30;99.90;;;;;;5001091;28;20636;-73
2024/01/03 06:48:39;;;;;;;6.82;2.00;;;8.20;99.90;;;;;;4993007;28;20080;-73
2024/01/03 06:51:05;;;;;;;7.50;1.73;;;8.20;99.90;;;;;;4984334;28;20043;-73
2024/01/03 06:53:31;;;;;;;8.68;2.38;;;8.30;99.90;;;;;;4978235;28;20412;-72
2024/01/03 06:55:57;;;;;;;10.70;2.45;;;8.30;99.90;;;;;;4982695;28;20030;-73
2024/01/03 06:58:23;;;;;;;4.80;2.30;;;8.30;99.90;;;;;;4981892;28;20042;-73
2024/01/03 07:00:49;;;;;;;8.43;2.33;;;8.30;99.90;;;;;;4975912;28;20046;-73
2024/01/03 07:03:17;;;;;;;9.52;2.83;;;8.30;99.90;;;;;;4964544;28;20039;-73
2024/01/03 07:05:43;;;;;;;8.38;3.60;;;8.20;99.90;;;;;;4983378;28;20102;-73
2024/01/03 07:08:09;;;;;;;18.30;3.10;;;8.30;99.90;;;;;;4970598;28;20080;-73
2024/01/03 07:10:35;;;;;;;6.72;2.63;;;8.30;99.90;;;;;;4989725;28;20054;-73
2024/01/03 07:13:01;;;;;;;5.47;2.53;;;8.30;99.90;;;;;;4986378;28;20054;-73
2024/01/03 07:15:27;;;;;;;3.53;2.28;;;8.30;99.90;;;;;;5001543;28;20088;-73
2024/01/03 07:17:55;;;;;;;8.98;2.50;;;8.30;99.90;;;;;;4990258;28;20088;-73
2024/01/03 07:20:22;;;;;;;10.18;1.70;;;8.30;99.90;;;;;;4987377;28;20042;-74
2024/01/03 07:22:48;;;;;;;9.38;2.53;;;8.30;99.90;;;;;;4984882;28;20489;-75
2024/01/03 07:25:13;;;;;;;4.97;1.20;;;8.30;99.90;;;;;;4987254;28;20054;-75
2024/01/03 07:27:39;;;;;;;6.18;1.95;;;8.30;99.90;;;;;;4975105;28;20050;-75
2024/01/03 07:30:05;;;;;;;7.47;2.60;;;8.20;99.90;;;;;;4984974;28;20068;-75
2024/01/03 07:32:31;;;;;;;7.03;2.45;;;8.30;99.90;;;;;;4985294;28;20048;-75
2024/01/03 07:34:57;;;;;;;7.53;2.17;;;8.30;99.90;;;;;;4988173;28;20050;-75
2024/01/03 07:37:22;;;;;;;5.88;1.65;;;8.30;99.90;;;;;;4983392;28;20046;-82
2024/01/03 07:39:48;;;;;;;8.75;2.13;;;8.20;99.90;;;;;;4991396;28;20054;-75
2024/01/03 07:42:13;;;;;;;8.73;2.00;;;8.20;99.90;;;;;;4999620;28;20423;-75
2024/01/03 07:44:42;;;;;;;4.63;1.55;;;8.20;99.90;;;;;;5000838;28;20119;-75
2024/01/03 07:47:11;;;;;;;6.65;2.03;;;8.10;99.90;;;;;;4988187;28;20100;-75
2024/01/03 07:49:38;;;;;;;8.05;1.95;;;8.20;99.90;;;;;;5003236;28;20104;-75
2024/01/03 07:52:04;;;;;;;2.25;1.42;;;8.30;99.90;;;;;;5005334;28;20042;-75
2024/01/03 07:54:30;;;;;;;2.42;1.17;;;8.20;99.90;;;;;;4996503;28;20042;-76
2024/01/03 07:56:57;;;;;;;6.80;1.42;;;8.20;99.90;;;;;;4987403;28;20580;-76
2024/01/03 07:59:23;;;;;;;7.75;2.50;;;8.20;99.90;;;;;;4985031;28;20050;-76
2024/01/03 08:01:49;;;;;;;4.47;1.60;;;8.20;99.90;;;;;;4968800;28;20038;-75
2024/01/03 08:04:16;;;;;;;6.10;1.88;;;8.20;99.90;;;;;;4984101;28;20038;-75
2024/01/03 08:06:42;;;;;;;4.55;1.85;;;8.20;99.90;;;;;;4984297;28;20058;-75
2024/01/03 08:09:07;;;;;;;3.10;2.03;;;8.20;99.90;;;;;;4984283;28;20523;-75
2024/01/03 08:11:33;;;;;;;4.85;1.35;;;8.20;99.90;;;;;;4972180;28;20535;-76
2024/01/03 08:13:59;;;;;;;2.25;1.30;;;8.20;99.90;;;;;;4968875;28;20045;-75
2024/01/03 08:16:24;;;;;;;4.78;1.88;;;8.10;99.90;;;;;;4968265;28;20046;-75
2024/01/03 08:18:50;;;;;;;4.38;1.00;;;8.20;99.90;;;;;;4984400;28;20046;-75
2024/01/03 08:21:16;;;;;;;8.52;1.67;;;8.10;99.90;;;;;;4984911;28;20101;-75
2024/01/03 08:23:42;;;;;;;4.45;1.00;;;8.20;99.90;;;;;;4967666;28;20149;-75
2024/01/03 08:26:12;;;;;;;2.45;1.67;;;8.10;99.90;;;;;;4984031;28;20034;-75
2024/01/03 08:28:40;;;;;;;4.18;1.25;;;8.20;99.90;;;;;;4983941;28;20151;-75
2024/01/03 08:31:05;;;;;;;10.77;2.80;;;8.20;99.90;;;;;;5001160;28;20511;-75
2024/01/03 08:33:36;;;;;;;5.13;1.83;;;8.20;99.90;;;;;;4993238;28;20034;-76
2024/01/03 08:36:02;;;;;;;7.45;2.03;;;8.20;99.90;;;;;;4982952;28;20050;-75
2024/01/03 08:38:28;;;;;;;2.05;1.15;;;8.20;99.90;;;;;;4983164;28;20050;-76
2024/01/03 08:40:53;;;;;;;8.43;2.33;;;8.10;99.90;;;;;;4980501;28;20056;-75
2024/01/03 08:43:19;;;;;;;2.88;1.75;;;8.10;99.90;;;;;;4985684;28;20046;-76
2024/01/03 08:45:44;;;;;;;5.60;2.03;;;8.20;99.90;;;;;;4993573;28;20681;-75
2024/01/03 08:48:10;;;;;;;6.22;1.50;;;8.20;99.90;;;;;;5002143;28;20096;-76
2024/01/03 08:50:36;;;;;;;6.97;1.17;;;8.20;99.90;;;;;;5003408;28;20120;-76
2024/01/03 08:53:01;;;;;;;9.10;1.60;;;8.20;99.90;;;;;;5001228;28;20196;-76
2024/01/03 08:55:27;;;;;;;4.03;1.35;;;8.20;99.90;;;;;;5002281;28;20128;-75
2024/01/03 08:57:56;;;;;;;4.13;0.73;;;8.20;99.90;;;;;;4997245;28;20084;-75
2024/01/03 09:00:23;;;;;;;13.52;1.42;;;8.20;99.90;;;;;;5015555;28;20429;-75
2024/01/03 09:02:49;;;;;;;6.32;1.40;;;8.30;99.90;;;;;;4983675;28;20061;-76
2024/01/03 09:05:15;;;;;;;5.28;1.52;;;8.30;99.90;;;;;;4986239;28;20047;-75
2024/01/03 09:07:43;;;;;;;3.83;1.40;;;8.30;99.90;;;;;;4969933;28;20397;-76
2024/01/03 09:10:09;;;;;;;2.78;1.40;;;8.30;99.90;;;;;;5014466;28;20046;-77
2024/01/03 09:12:34;;;;;;;5.40;1.55;;;8.30;99.90;;;;;;4983431;28;20077;-76
2024/01/03 09:15:03;;;;;;;2.63;1.48;;;8.30;99.90;;;;;;4983677;28;20342;-82
2024/01/03 09:17:29;;;;;;;4.40;1.92;;;8.30;99.90;;;;;;4978963;28;20174;-76
2024/01/03 09:19:54;;;;;;;6.95;2.13;;;8.30;99.90;;;;;;4982141;28;20216;-76
2024/01/03 09:22:20;;;;;;;6.75;1.73;;;8.30;99.90;;;;;;5016139;28;20046;-77
2024/01/03 09:24:45;;;;;;;4.22;2.28;;;8.40;99.90;;;;;;4983125;28;20046;-76
2024/01/03 09:27:11;;;;;;;4.13;1.92;;;8.30;99.90;;;;;;4982488;28;20038;-76
2024/01/03 09:29:36;;;;;;;3.00;0.95;;;8.30;99.90;;;;;;4983239;28;20064;-76
2024/01/03 09:32:02;;;;;;;7.43;1.77;;;8.30;99.90;;;;;;4983038;28;20050;-76
2024/01/03 09:34:28;;;;;;;3.25;1.67;;;8.30;99.90;;;;;;4981534;28;20039;-76
2024/01/03 09:36:53;;;;;;;7.68;1.77;;;8.20;99.90;;;;;;4983044;28;20034;-76
2024/01/03 09:39:19;;;;;;;2.58;1.15;;;8.30;99.90;;;;;;4983059;28;20485;-77
2024/01/03 09:41:47;;;;;;;5.50;2.03;;;8.30;99.90;;;;;;4983050;28;20459;-76
2024/01/03 09:44:13;;;;;;;8.45;1.90;;;8.30;99.90;;;;;;4981803;28;20207;-76
2024/01/03 09:46:41;;;;;;;8.40;1.73;;;8.40;99.90;;;;;;4983556;28;20229;-76
2024/01/03 09:49:08;;;;;;;1.67;0.82;;;8.30;99.90;;;;;;4981369;28;20042;-76
2024/01/03 09:51:34;;;;;;;3.65;1.95;;;8.40;99.90;;;;;;4983845;28;20389;-76
2024/01/03 09:54:02;;;;;;;3.63;0.93;;;8.40;99.90;;;;;;4983405;28;20108;-76
2024/01/03 09:56:27;;;;;;;7.75;1.35;;;8.30;99.90;;;;;;4979327;28;20042;-76
2024/01/03 09:58:53;;;;;;;4.75;2.35;;;8.40;99.90;;;;;;4980558;28;20073;-76
2024/01/03 10:01:18;;;;;;;12.77;1.38;;;8.40;99.90;;;;;;4982334;28;20460;-76
2024/01/03 10:03:44;;;;;;;1.95;0.73;;;8.40;99.90;;;;;;4981952;28;20034;-76
2024/01/03 10:06:13;;;;;;;4.90;1.20;;;8.30;99.90;;;;;;4986832;28;20100;-76
2024/01/03 10:08:40;;;;;;;3.58;1.60;;;8.30;99.90;;;;;;4971325;28;20057;-76
2024/01/03 10:11:22;;;;;;;3.55;0.60;;;8.40;99.90;;;;;;4983298;28;20374;-76
2024/01/03 10:13:53;;;;;;;5.32;1.58;;;8.30;99.90;;;;;;4984930;28;20468;-76
2024/01/03 10:16:26;;;;;;;2.65;1.17;;;8.40;99.90;;;;;;4977853;28;20046;-78
2024/01/03 10:19:09;;;;;;;3.78;1.35;;;8.40;99.90;;;;;;4979778;28;20057;-75
2024/01/03 10:21:40;;;;;;;5.38;0.95;;;8.50;99.90;;;;;;4981012;28;20034;-77
2024/01/03 10:24:07;;;;;;;5.65;2.15;;;8.50;99.90;;;;;;5013216;28;20046;-77
2024/01/03 10:26:33;;;;;;;10.82;2.35;;;8.60;99.90;;;;;;4981923;28;20034;-77
2024/01/03 10:29:12;;;;;;;6.10;2.65;;;8.60;99.90;;;;;;4981548;28;20381;-76
2024/01/03 10:31:38;;;;;;;8.50;1.80;;;8.60;99.90;;;;;;4982500;28;20166;-77
2024/01/03 10:34:08;;;;;;;5.47;1.67;;;8.60;99.90;;;;;;4980888;28;20133;-76
2024/01/03 10:36:34;;;;;;;2.03;1.05;;;8.60;99.90;;;;;;4980911;28;20050;-76
2024/01/03 10:39:02;;;;;;;6.70;2.47;;;8.60;99.90;;;;;;4980849;28;20088;-76
2024/01/03 10:41:30;;;;;;;14.43;1.83;;;8.60;99.90;;;;;;5005861;28;20621;-76
2024/01/03 10:44:02;;;;;;;5.20;1.40;;;8.60;99.90;;;;;;4981686;28;20038;-77
2024/01/03 10:46:30;;;;;;;10.00;1.75;;;8.70;99.90;;;;;;4986583;28;20042;-75
2024/01/03 10:48:56;;;;;;;6.53;1.38;;;8.70;99.90;;;;;;4986073;28;20129;-75
2024/01/03 10:51:26;;;;;;;9.68;1.48;;;8.70;99.90;;;;;;4988619;28;20785;-76
2024/01/03 10:53:54;;;;;;;8.82;1.92;;;8.70;99.90;;;;;;4986256;28;20054;-75
2024/01/03 10:56:20;;;;;;;6.97;0.98;;;8.70;99.90;;;;;;4987883;28;20205;-75
2024/01/03 10:58:46;;;;;;;7.22;1.20;;;8.70;99.90;;;;;;4989409;28;20120;-75
2024/01/03 11:01:31;;;;;;;6.18;0.95;;;8.80;99.90;;;;;;4986228;28;20579;-76
2024/01/03 11:04:16;;;;;;;8.82;2.15;;;8.80;99.90;;;;;;4969659;28;20046;-76
2024/01/03 11:07:28;;;;;;;3.22;2.65;;;8.80;99.90;;;;;;4989841;28;20042;-76
2024/01/03 11:09:53;;;;;;;6.82;2.38;;;8.80;99.90;;;;;;4988369;28;20050;-77
2024/01/03 11:12:27;;;;;;;5.47;1.77;;;8.90;99.90;;;;;;4998597;28;20468;-76
2024/01/03 11:14:52;;;;;;;5.60;1.02;;;8.90;99.90;;;;;;5024906;28;20074;-75
2024/01/03 11:17:32;;;;;;;5.57;1.27;;;8.90;99.90;;;;;;4992431;28;20073;-76
2024/01/03 11:20:06;;;;;;;3.90;1.20;;;8.90;99.90;;;;;;4985699;28;20049;-76
2024/01/03 11:22:55;;;;;;;1.63;0.90;;;8.80;99.90;;;;;;4982287;28;20050;-75
2024/01/03 11:25:49;;;;;;;8.02;1.50;;;8.90;99.90;;;;;;5000679;28;20133;-77
2024/01/03 11:28:37;;;;;;;6.05;1.27;;;8.90;99.90;;;;;;4987285;28;20381;-76
2024/01/03 11:31:04;;;;;;;2.45;1.33;;;8.90;99.90;;;;;;4993893;28;20144;-78
2024/01/03 11:33:38;;;;;;;5.82;1.25;;;8.90;99.90;;;;;;4990502;28;20455;-75
2024/01/03 11:36:05;;;;;;;7.60;1.13;;;8.80;99.90;;;;;;4969844;28;20250;-76
2024/01/03 11:38:41;;;;;;;6.93;2.20;;;8.80;99.90;;;;;;5019857;28;20080;-75
2024/01/03 11:41:08;;;;;;;2.50;1.20;;;8.90;99.90;;;;;;4987711;28;20117;-76
2024/01/03 11:43:34;;;;;;;6.13;1.85;;;8.80;99.90;;;;;;4986537;28;20066;-76
2024/01/03 11:46:12;;;;;;;7.15;2.55;;;8.90;99.90;;;;;;4987837;28;20039;-76
2024/01/03 11:48:39;;;;;;;3.72;1.30;;;9.00;99.90;;;;;;4986935;28;20042;-77
2024/01/03 11:51:24;;;;;;;5.75;2.45;;;9.00;99.90;;;;;;4992945;28;20070;-76
2024/01/03 11:54:01;;;;;;;3.70;1.25;;;9.00;99.90;;;;;;5004389;28;20563;-77
2024/01/03 11:56:31;;;;;;;3.47;1.52;;;9.00;99.90;;;;;;4994428;28;20050;-76
2024/01/03 11:58:57;;;;;;;3.95;2.25;;;9.00;99.90;;;;;;5004055;28;20523;-77
2024/01/03 12:01:23;;;;;;;6.00;1.90;;;9.00;99.90;;;;;;4991472;28;20492;-76
2024/01/03 12:03:49;;;;;;;4.75;1.73;;;9.00;99.90;;;;;;4982924;28;20125;-76
2024/01/03 12:06:21;;;;;;;4.43;2.58;;;9.10;99.90;;;;;;4983395;28;20050;-76
2024/01/03 12:08:47;;;;;;;2.72;2.05;;;9.00;99.90;;;;;;4983612;28;20089;-76
2024/01/03 12:11:13;;;;;;;3.92;2.13;;;9.00;99.90;;;;;;4984304;28;20054;-76
2024/01/03 12:13:39;;;;;;;7.57;1.00;;;9.00;99.90;;;;;;4981461;28;20073;-76
2024/01/03 12:16:05;;;;;;;11.55;1.95;;;9.00;99.90;;;;;;4981892;28;20114;-74
2024/01/03 12:18:32;;;;;;;2.80;1.98;;;9.10;99.90;;;;;;4981151;28;20551;-74
2024/01/03 12:21:10;;;;;;;6.05;1.33;;;9.10;99.90;;;;;;4966401;28;20039;-73
2024/01/03 12:23:35;;;;;;;2.40;0.80;;;9.10;99.90;;;;;;4982504;28;20547;-75
2024/01/03 12:26:10;;;;;;;6.65;1.83;;;9.10;99.90;;;;;;5015763;28;20046;-74
2024/01/03 12:28:36;;;;;;;3.90;1.48;;;9.10;99.90;;;;;;4983903;28;20406;-74
2024/01/03 12:31:02;;;;;;;2.03;0.85;;;9.10;99.90;;;;;;4966064;28;20081;-74
2024/01/03 12:33:27;;;;;;;1.15;0.82;;;9.10;99.90;;;;;;4981661;28;20049;-75
2024/01/03 12:35:58;;;;;;;7.80;1.60;;;9.10;99.90;;;;;;4972654;28;20042;-74
2024/01/03 12:38:25;;;;;;;1.85;0.70;;;9.00;99.90;;;;;;4992329;28;20381;-74
2024/01/03 12:40:50;;;;;;;9.75;1.45;;;9.00;99.90;;;;;;4988589;28;20053;-74
2024/01/03 12:43:16;;;;;;;1.95;1.13;;;9.10;99.90;;;;;;4970320;28;20069;-75
2024/01/03 12:45:41;;;;;;;1.33;1.13;;;9.10;99.90;;;;;;4968408;28;20037;-74
2024/01/03 12:48:07;;;;;;;1.70;0.65;;;9.10;99.90;;;;;;4997374;28;20053;-74
2024/01/03 12:50:41;;;;;;;6.45;1.35;;;9.10;99.90;;;;;;4983172;28;20120;-74
2024/01/03 12:53:07;;;;;;;7.18;1.88;;;9.10;99.90;;;;;;4990101;28;20073;-73
2024/01/03 12:55:33;;;;;;;4.40;1.73;;;9.10;99.90;;;;;;4982490;28;20563;-74